sensor_id;sensor_type;location;lat;lon;timestamp;P1;durP1;ratioP1;P2;durP2;ratioP2
77798;SDS011;66989;50.426;15.352;2023-02-15T00:01:32;38.47;;;19.17;;
77798;SDS011;66989;50.426;15.352;2023-02-15T00:03:58;38.25;;;18.70;;
77798;SDS011;66989;50.426;15.352;2023-02-15T00:06:24;34.80;;;19.30;;
77798;SDS011;66989;50.426;15.352;2023-02-15T00:08:49;36.08;;;17.33;;
77798;SDS011;66989;50.426;15.352;2023-02-15T00:11:16;36.17;;;18.88;;
77798;SDS011;66989;50.426;15.352;2023-02-15T00:14:02;41.90;;;20.55;;
77798;SDS011;66989;50.426;15.352;2023-02-15T00:16:29;29.90;;;15.73;;
77798;SDS011;66989;50.426;15.352;2023-02-15T00:18:54;32.33;;;15.15;;
77798;SDS011;66989;50.426;15.352;2023-02-15T00:21:20;39.97;;;19.02;;
77798;SDS011;66989;50.426;15.352;2023-02-15T00:23:45;28.73;;;14.53;;
77798;SDS011;66989;50.426;15.352;2023-02-15T00:26:11;32.67;;;17.20;;
77798;SDS011;66989;50.426;15.352;2023-02-15T00:28:37;33.60;;;16.83;;
77798;SDS011;66989;50.426;15.352;2023-02-15T00:31:06;37.33;;;18.35;;
77798;SDS011;66989;50.426;15.352;2023-02-15T00:33:33;40.90;;;20.73;;
77798;SDS011;66989;50.426;15.352;2023-02-15T00:35:59;38.88;;;19.55;;
77798;SDS011;66989;50.426;15.352;2023-02-15T00:38:26;33.08;;;16.80;;
77798;SDS011;66989;50.426;15.352;2023-02-15T00:40:58;32.75;;;17.67;;
77798;SDS011;66989;50.426;15.352;2023-02-15T00:43:26;35.40;;;16.92;;
77798;SDS011;66989;50.426;15.352;2023-02-15T00:45:52;24.65;;;12.85;;
77798;SDS011;66989;50.426;15.352;2023-02-15T00:48:18;37.20;;;18.13;;
77798;SDS011;66989;50.426;15.352;2023-02-15T00:50:54;31.48;;;15.50;;
77798;SDS011;66989;50.426;15.352;2023-02-15T00:53:22;33.10;;;16.85;;
77798;SDS011;66989;50.426;15.352;2023-02-15T00:55:48;33.95;;;20.25;;
77798;SDS011;66989;50.426;15.352;2023-02-15T00:58:14;33.00;;;15.45;;
77798;SDS011;66989;50.426;15.352;2023-02-15T01:00:40;35.30;;;17.05;;
77798;SDS011;66989;50.426;15.352;2023-02-15T01:03:09;29.73;;;15.50;;
77798;SDS011;66989;50.426;15.352;2023-02-15T01:05:35;27.83;;;14.25;;
77798;SDS011;66989;50.426;15.352;2023-02-15T01:08:00;35.35;;;17.67;;
77798;SDS011;66989;50.426;15.352;2023-02-15T01:10:26;40.70;;;20.27;;
77798;SDS011;66989;50.426;15.352;2023-02-15T01:12:52;36.25;;;18.63;;
77798;SDS011;66989;50.426;15.352;2023-02-15T01:15:18;37.55;;;19.20;;
77798;SDS011;66989;50.426;15.352;2023-02-15T01:17:43;24.08;;;11.93;;
77798;SDS011;66989;50.426;15.352;2023-02-15T01:20:14;36.65;;;17.23;;
77798;SDS011;66989;50.426;15.352;2023-02-15T01:22:40;27.35;;;12.77;;
77798;SDS011;66989;50.426;15.352;2023-02-15T01:25:05;40.00;;;20.47;;
77798;SDS011;66989;50.426;15.352;2023-02-15T01:27:30;42.83;;;20.70;;
77798;SDS011;66989;50.426;15.352;2023-02-15T01:29:56;39.90;;;19.70;;
77798;SDS011;66989;50.426;15.352;2023-02-15T01:32:21;37.90;;;17.40;;
77798;SDS011;66989;50.426;15.352;2023-02-15T01:34:47;38.17;;;19.45;;
77798;SDS011;66989;50.426;15.352;2023-02-15T01:37:12;38.60;;;18.50;;
77798;SDS011;66989;50.426;15.352;2023-02-15T01:39:39;41.95;;;20.42;;
77798;SDS011;66989;50.426;15.352;2023-02-15T01:42:04;41.60;;;18.85;;
77798;SDS011;66989;50.426;15.352;2023-02-15T01:44:46;30.63;;;16.00;;
77798;SDS011;66989;50.426;15.352;2023-02-15T01:47:16;36.97;;;17.98;;
77798;SDS011;66989;50.426;15.352;2023-02-15T01:49:47;34.55;;;17.13;;
77798;SDS011;66989;50.426;15.352;2023-02-15T01:52:17;37.58;;;18.38;;
77798;SDS011;66989;50.426;15.352;2023-02-15T01:54:44;35.20;;;16.63;;
77798;SDS011;66989;50.426;15.352;2023-02-15T01:57:12;38.22;;;18.25;;
77798;SDS011;66989;50.426;15.352;2023-02-15T01:59:41;33.55;;;15.98;;
77798;SDS011;66989;50.426;15.352;2023-02-15T02:02:11;42.28;;;19.33;;
77798;SDS011;66989;50.426;15.352;2023-02-15T02:04:39;42.20;;;20.67;;
77798;SDS011;66989;50.426;15.352;2023-02-15T02:07:09;44.40;;;21.15;;
77798;SDS011;66989;50.426;15.352;2023-02-15T02:09:37;39.75;;;18.83;;
77798;SDS011;66989;50.426;15.352;2023-02-15T02:12:03;39.90;;;20.27;;
77798;SDS011;66989;50.426;15.352;2023-02-15T02:14:28;44.25;;;22.40;;
77798;SDS011;66989;50.426;15.352;2023-02-15T02:17:08;46.03;;;21.48;;
77798;SDS011;66989;50.426;15.352;2023-02-15T02:19:47;36.88;;;20.20;;
77798;SDS011;66989;50.426;15.352;2023-02-15T02:22:38;39.38;;;19.63;;
77798;SDS011;66989;50.426;15.352;2023-02-15T02:27:48;37.25;;;19.05;;
77798;SDS011;66989;50.426;15.352;2023-02-15T02:35:57;31.05;;;15.85;;
77798;SDS011;66989;50.426;15.352;2023-02-15T02:38:27;32.53;;;17.00;;
77798;SDS011;66989;50.426;15.352;2023-02-15T02:41:16;37.78;;;19.10;;
77798;SDS011;66989;50.426;15.352;2023-02-15T02:43:51;31.50;;;15.85;;
77798;SDS011;66989;50.426;15.352;2023-02-15T02:46:30;34.38;;;16.77;;
77798;SDS011;66989;50.426;15.352;2023-02-15T02:49:01;32.33;;;15.32;;
77798;SDS011;66989;50.426;15.352;2023-02-15T02:51:26;41.85;;;19.02;;
77798;SDS011;66989;50.426;15.352;2023-02-15T02:53:53;35.05;;;18.35;;
77798;SDS011;66989;50.426;15.352;2023-02-15T02:59:20;35.45;;;21.40;;
77798;SDS011;66989;50.426;15.352;2023-02-15T03:01:55;36.33;;;17.50;;
77798;SDS011;66989;50.426;15.352;2023-02-15T03:04:32;37.15;;;17.92;;
77798;SDS011;66989;50.426;15.352;2023-02-15T03:07:09;34.83;;;16.42;;
77798;SDS011;66989;50.426;15.352;2023-02-15T03:09:41;26.13;;;12.95;;
77798;SDS011;66989;50.426;15.352;2023-02-15T03:12:11;43.65;;;22.98;;
77798;SDS011;66989;50.426;15.352;2023-02-15T03:14:40;41.47;;;19.95;;
77798;SDS011;66989;50.426;15.352;2023-02-15T03:17:09;36.97;;;19.85;;
77798;SDS011;66989;50.426;15.352;2023-02-15T03:19:37;32.63;;;16.48;;
77798;SDS011;66989;50.426;15.352;2023-02-15T03:22:15;29.27;;;13.85;;
77798;SDS011;66989;50.426;15.352;2023-02-15T03:24:56;38.40;;;18.60;;
77798;SDS011;66989;50.426;15.352;2023-02-15T03:27:27;39.35;;;20.45;;
77798;SDS011;66989;50.426;15.352;2023-02-15T03:29:59;32.75;;;17.70;;
77798;SDS011;66989;50.426;15.352;2023-02-15T03:32:26;40.75;;;20.58;;
77798;SDS011;66989;50.426;15.352;2023-02-15T03:34:55;33.40;;;17.35;;
77798;SDS011;66989;50.426;15.352;2023-02-15T03:40:08;40.85;;;18.98;;
77798;SDS011;66989;50.426;15.352;2023-02-15T03:43:07;36.80;;;19.30;;
77798;SDS011;66989;50.426;15.352;2023-02-15T03:45:52;35.50;;;17.90;;
77798;SDS011;66989;50.426;15.352;2023-02-15T03:48:26;43.40;;;21.33;;
77798;SDS011;66989;50.426;15.352;2023-02-15T03:50:56;40.58;;;19.42;;
77798;SDS011;66989;50.426;15.352;2023-02-15T03:53:44;36.35;;;18.13;;
77798;SDS011;66989;50.426;15.352;2023-02-15T03:56:12;37.20;;;17.25;;
77798;SDS011;66989;50.426;15.352;2023-02-15T03:58:37;34.88;;;16.30;;
77798;SDS011;66989;50.426;15.352;2023-02-15T04:01:30;30.52;;;16.02;;
77798;SDS011;66989;50.426;15.352;2023-02-15T04:04:35;38.40;;;19.35;;
77798;SDS011;66989;50.426;15.352;2023-02-15T04:07:03;37.03;;;18.73;;
77798;SDS011;66989;50.426;15.352;2023-02-15T04:09:30;36.63;;;17.67;;
77798;SDS011;66989;50.426;15.352;2023-02-15T04:12:14;36.55;;;18.55;;
77798;SDS011;66989;50.426;15.352;2023-02-15T04:14:40;39.25;;;19.10;;
77798;SDS011;66989;50.426;15.352;2023-02-15T04:17:24;34.35;;;16.95;;
77798;SDS011;66989;50.426;15.352;2023-02-15T04:19:49;37.03;;;16.25;;
77798;SDS011;66989;50.426;15.352;2023-02-15T04:22:33;41.03;;;18.83;;
77798;SDS011;66989;50.426;15.352;2023-02-15T04:25:16;37.75;;;19.60;;
77798;SDS011;66989;50.426;15.352;2023-02-15T04:27:43;36.28;;;20.00;;
77798;SDS011;66989;50.426;15.352;2023-02-15T04:30:12;38.45;;;18.65;;
77798;SDS011;66989;50.426;15.352;2023-02-15T04:32:38;41.92;;;20.73;;
77798;SDS011;66989;50.426;15.352;2023-02-15T04:35:04;36.65;;;20.00;;
77798;SDS011;66989;50.426;15.352;2023-02-15T04:37:31;38.63;;;21.17;;
77798;SDS011;66989;50.426;15.352;2023-02-15T04:39:56;39.45;;;21.15;;
77798;SDS011;66989;50.426;15.352;2023-02-15T04:42:23;44.85;;;22.45;;
77798;SDS011;66989;50.426;15.352;2023-02-15T04:44:50;39.72;;;19.45;;
77798;SDS011;66989;50.426;15.352;2023-02-15T04:47:16;43.05;;;22.52;;
77798;SDS011;66989;50.426;15.352;2023-02-15T04:49:41;45.70;;;23.30;;
77798;SDS011;66989;50.426;15.352;2023-02-15T04:52:06;44.33;;;23.85;;
77798;SDS011;66989;50.426;15.352;2023-02-15T04:54:32;46.95;;;23.35;;
77798;SDS011;66989;50.426;15.352;2023-02-15T04:56:57;43.03;;;23.42;;
77798;SDS011;66989;50.426;15.352;2023-02-15T04:59:22;48.83;;;23.33;;
77798;SDS011;66989;50.426;15.352;2023-02-15T05:01:48;48.72;;;24.58;;
77798;SDS011;66989;50.426;15.352;2023-02-15T05:04:13;45.83;;;22.87;;
77798;SDS011;66989;50.426;15.352;2023-02-15T05:06:38;47.60;;;25.57;;
77798;SDS011;66989;50.426;15.352;2023-02-15T05:09:04;48.63;;;26.53;;
77798;SDS011;66989;50.426;15.352;2023-02-15T05:11:29;51.53;;;23.38;;
77798;SDS011;66989;50.426;15.352;2023-02-15T05:13:54;44.60;;;23.27;;
77798;SDS011;66989;50.426;15.352;2023-02-15T05:16:21;38.08;;;18.38;;
77798;SDS011;66989;50.426;15.352;2023-02-15T05:18:47;39.67;;;18.23;;
77798;SDS011;66989;50.426;15.352;2023-02-15T05:21:12;44.20;;;23.57;;
77798;SDS011;66989;50.426;15.352;2023-02-15T05:23:38;46.08;;;23.98;;
77798;SDS011;66989;50.426;15.352;2023-02-15T05:26:04;47.67;;;24.15;;
77798;SDS011;66989;50.426;15.352;2023-02-15T05:28:48;35.03;;;19.27;;
77798;SDS011;66989;50.426;15.352;2023-02-15T05:31:14;53.10;;;25.03;;
77798;SDS011;66989;50.426;15.352;2023-02-15T05:33:43;37.55;;;19.83;;
77798;SDS011;66989;50.426;15.352;2023-02-15T05:36:09;48.22;;;26.17;;
77798;SDS011;66989;50.426;15.352;2023-02-15T05:38:35;38.80;;;19.63;;
77798;SDS011;66989;50.426;15.352;2023-02-15T05:41:04;40.95;;;22.67;;
77798;SDS011;66989;50.426;15.352;2023-02-15T05:43:31;48.17;;;24.00;;
77798;SDS011;66989;50.426;15.352;2023-02-15T05:45:57;48.25;;;24.48;;
77798;SDS011;66989;50.426;15.352;2023-02-15T05:48:23;54.83;;;28.47;;
77798;SDS011;66989;50.426;15.352;2023-02-15T05:53:26;44.10;;;22.48;;
77798;SDS011;66989;50.426;15.352;2023-02-15T05:55:52;44.00;;;25.52;;
77798;SDS011;66989;50.426;15.352;2023-02-15T05:58:18;40.85;;;22.85;;
77798;SDS011;66989;50.426;15.352;2023-02-15T06:00:44;45.45;;;24.08;;
77798;SDS011;66989;50.426;15.352;2023-02-15T06:03:09;43.63;;;22.50;;
77798;SDS011;66989;50.426;15.352;2023-02-15T06:05:35;39.70;;;21.17;;
77798;SDS011;66989;50.426;15.352;2023-02-15T06:08:00;40.47;;;22.43;;
77798;SDS011;66989;50.426;15.352;2023-02-15T06:10:25;43.20;;;21.97;;
77798;SDS011;66989;50.426;15.352;2023-02-15T06:12:51;45.13;;;24.17;;
77798;SDS011;66989;50.426;15.352;2023-02-15T06:15:16;50.13;;;25.47;;
77798;SDS011;66989;50.426;15.352;2023-02-15T06:17:42;51.20;;;27.27;;
77798;SDS011;66989;50.426;15.352;2023-02-15T06:20:08;47.83;;;22.02;;
77798;SDS011;66989;50.426;15.352;2023-02-15T06:22:34;82.05;;;34.95;;
77798;SDS011;66989;50.426;15.352;2023-02-15T06:24:59;63.78;;;30.15;;
77798;SDS011;66989;50.426;15.352;2023-02-15T06:27:26;45.88;;;22.30;;
77798;SDS011;66989;50.426;15.352;2023-02-15T06:29:52;55.00;;;26.10;;
77798;SDS011;66989;50.426;15.352;2023-02-15T06:32:17;39.63;;;19.95;;
77798;SDS011;66989;50.426;15.352;2023-02-15T06:34:42;45.73;;;25.60;;
77798;SDS011;66989;50.426;15.352;2023-02-15T06:37:09;45.15;;;24.55;;
77798;SDS011;66989;50.426;15.352;2023-02-15T06:39:35;42.58;;;21.17;;
77798;SDS011;66989;50.426;15.352;2023-02-15T06:42:01;37.20;;;19.50;;
77798;SDS011;66989;50.426;15.352;2023-02-15T06:44:26;40.05;;;23.77;;
77798;SDS011;66989;50.426;15.352;2023-02-15T06:46:51;40.53;;;20.43;;
77798;SDS011;66989;50.426;15.352;2023-02-15T06:49:17;36.65;;;21.08;;
77798;SDS011;66989;50.426;15.352;2023-02-15T06:51:42;37.75;;;18.83;;
77798;SDS011;66989;50.426;15.352;2023-02-15T06:54:07;37.20;;;19.40;;
77798;SDS011;66989;50.426;15.352;2023-02-15T06:56:33;38.13;;;21.00;;
77798;SDS011;66989;50.426;15.352;2023-02-15T06:58:58;38.58;;;21.63;;
77798;SDS011;66989;50.426;15.352;2023-02-15T07:01:24;43.03;;;21.20;;
77798;SDS011;66989;50.426;15.352;2023-02-15T07:03:49;33.80;;;19.30;;
77798;SDS011;66989;50.426;15.352;2023-02-15T07:06:14;32.45;;;18.23;;
77798;SDS011;66989;50.426;15.352;2023-02-15T07:08:40;38.35;;;21.35;;
77798;SDS011;66989;50.426;15.352;2023-02-15T07:11:05;41.40;;;23.05;;
77798;SDS011;66989;50.426;15.352;2023-02-15T07:13:50;38.80;;;20.10;;
77798;SDS011;66989;50.426;15.352;2023-02-15T07:16:17;43.65;;;22.23;;
77798;SDS011;66989;50.426;15.352;2023-02-15T07:18:42;39.50;;;21.13;;
77798;SDS011;66989;50.426;15.352;2023-02-15T07:21:08;39.25;;;21.50;;
77798;SDS011;66989;50.426;15.352;2023-02-15T07:23:37;37.47;;;19.15;;
77798;SDS011;66989;50.426;15.352;2023-02-15T07:26:05;35.05;;;18.13;;
77798;SDS011;66989;50.426;15.352;2023-02-15T07:28:32;41.00;;;23.92;;
77798;SDS011;66989;50.426;15.352;2023-02-15T07:30:58;40.05;;;22.25;;
77798;SDS011;66989;50.426;15.352;2023-02-15T07:33:23;39.15;;;20.98;;
77798;SDS011;66989;50.426;15.352;2023-02-15T07:35:50;44.17;;;22.60;;
77798;SDS011;66989;50.426;15.352;2023-02-15T07:40:42;41.42;;;22.10;;
77798;SDS011;66989;50.426;15.352;2023-02-15T07:43:07;42.85;;;21.55;;
77798;SDS011;66989;50.426;15.352;2023-02-15T07:45:33;43.03;;;22.38;;
77798;SDS011;66989;50.426;15.352;2023-02-15T07:47:59;39.10;;;21.08;;
77798;SDS011;66989;50.426;15.352;2023-02-15T07:50:25;41.78;;;21.50;;
77798;SDS011;66989;50.426;15.352;2023-02-15T07:52:51;41.53;;;21.17;;
77798;SDS011;66989;50.426;15.352;2023-02-15T07:55:16;42.43;;;22.20;;
77798;SDS011;66989;50.426;15.352;2023-02-15T07:57:42;44.35;;;20.77;;
77798;SDS011;66989;50.426;15.352;2023-02-15T08:00:09;41.78;;;22.67;;
77798;SDS011;66989;50.426;15.352;2023-02-15T08:02:38;44.95;;;21.60;;
77798;SDS011;66989;50.426;15.352;2023-02-15T08:05:03;44.60;;;22.85;;
77798;SDS011;66989;50.426;15.352;2023-02-15T08:07:29;42.92;;;23.00;;
77798;SDS011;66989;50.426;15.352;2023-02-15T08:09:54;45.90;;;20.63;;
77798;SDS011;66989;50.426;15.352;2023-02-15T08:12:20;47.05;;;25.70;;
77798;SDS011;66989;50.426;15.352;2023-02-15T08:14:45;43.75;;;22.92;;
77798;SDS011;66989;50.426;15.352;2023-02-15T08:17:10;41.70;;;21.60;;
77798;SDS011;66989;50.426;15.352;2023-02-15T08:19:36;49.10;;;22.05;;
77798;SDS011;66989;50.426;15.352;2023-02-15T08:22:07;45.58;;;24.10;;
77798;SDS011;66989;50.426;15.352;2023-02-15T08:24:34;46.83;;;23.80;;
77798;SDS011;66989;50.426;15.352;2023-02-15T08:27:04;49.33;;;23.00;;
77798;SDS011;66989;50.426;15.352;2023-02-15T08:29:34;42.55;;;21.00;;
77798;SDS011;66989;50.426;15.352;2023-02-15T08:32:02;41.88;;;21.92;;
77798;SDS011;66989;50.426;15.352;2023-02-15T08:34:47;41.88;;;22.40;;
77798;SDS011;66989;50.426;15.352;2023-02-15T08:37:13;44.00;;;20.45;;
77798;SDS011;66989;50.426;15.352;2023-02-15T08:39:39;46.27;;;23.03;;
77798;SDS011;66989;50.426;15.352;2023-02-15T08:42:04;48.05;;;22.40;;
77798;SDS011;66989;50.426;15.352;2023-02-15T08:44:30;39.55;;;18.88;;
77798;SDS011;66989;50.426;15.352;2023-02-15T08:46:55;37.57;;;19.27;;
77798;SDS011;66989;50.426;15.352;2023-02-15T08:49:27;39.75;;;21.25;;
77798;SDS011;66989;50.426;15.352;2023-02-15T08:51:52;36.72;;;18.88;;
77798;SDS011;66989;50.426;15.352;2023-02-15T08:54:19;40.88;;;19.35;;
77798;SDS011;66989;50.426;15.352;2023-02-15T08:56:45;40.95;;;20.38;;
77798;SDS011;66989;50.426;15.352;2023-02-15T08:59:12;34.15;;;18.42;;
77798;SDS011;66989;50.426;15.352;2023-02-15T09:01:43;37.20;;;21.02;;
77798;SDS011;66989;50.426;15.352;2023-02-15T09:04:09;39.75;;;20.17;;
77798;SDS011;66989;50.426;15.352;2023-02-15T09:06:36;30.08;;;15.48;;
77798;SDS011;66989;50.426;15.352;2023-02-15T09:09:02;40.88;;;19.55;;
77798;SDS011;66989;50.426;15.352;2023-02-15T09:11:29;42.83;;;20.45;;
77798;SDS011;66989;50.426;15.352;2023-02-15T09:13:59;37.67;;;19.83;;
77798;SDS011;66989;50.426;15.352;2023-02-15T09:16:29;33.10;;;17.15;;
77798;SDS011;66989;50.426;15.352;2023-02-15T09:19:00;42.10;;;22.10;;
77798;SDS011;66989;50.426;15.352;2023-02-15T09:21:26;39.13;;;19.77;;
77798;SDS011;66989;50.426;15.352;2023-02-15T09:23:55;39.35;;;19.15;;
77798;SDS011;66989;50.426;15.352;2023-02-15T09:26:29;33.25;;;17.17;;
77798;SDS011;66989;50.426;15.352;2023-02-15T09:29:00;37.88;;;20.20;;
77798;SDS011;66989;50.426;15.352;2023-02-15T09:31:31;32.30;;;17.30;;
77798;SDS011;66989;50.426;15.352;2023-02-15T09:33:59;34.53;;;18.42;;
77798;SDS011;66989;50.426;15.352;2023-02-15T09:36:32;35.60;;;20.70;;
77798;SDS011;66989;50.426;15.352;2023-02-15T09:39:00;39.05;;;20.23;;
77798;SDS011;66989;50.426;15.352;2023-02-15T09:44:20;37.38;;;19.15;;
77798;SDS011;66989;50.426;15.352;2023-02-15T09:49:56;36.65;;;17.80;;
77798;SDS011;66989;50.426;15.352;2023-02-15T10:19:54;42.53;;;20.33;;
77798;SDS011;66989;50.426;15.352;2023-02-15T10:27:41;39.15;;;19.48;;
77798;SDS011;66989;50.426;15.352;2023-02-15T10:30:12;39.63;;;21.38;;
77798;SDS011;66989;50.426;15.352;2023-02-15T10:33:06;40.28;;;21.52;;
77798;SDS011;66989;50.426;15.352;2023-02-15T10:46:55;45.72;;;23.00;;
77798;SDS011;66989;50.426;15.352;2023-02-15T10:55:08;44.33;;;21.67;;
77798;SDS011;66989;50.426;15.352;2023-02-15T11:08:23;39.67;;;21.13;;
77798;SDS011;66989;50.426;15.352;2023-02-15T11:10:52;40.58;;;20.45;;
77798;SDS011;66989;50.426;15.352;2023-02-15T11:13:25;33.45;;;17.38;;
77798;SDS011;66989;50.426;15.352;2023-02-15T11:15:57;41.42;;;22.85;;
77798;SDS011;66989;50.426;15.352;2023-02-15T11:18:39;44.40;;;23.77;;
77798;SDS011;66989;50.426;15.352;2023-02-15T11:21:16;42.45;;;23.00;;
77798;SDS011;66989;50.426;15.352;2023-02-15T11:23:54;46.10;;;23.70;;
77798;SDS011;66989;50.426;15.352;2023-02-15T11:32:12;45.92;;;25.70;;
77798;SDS011;66989;50.426;15.352;2023-02-15T11:34:52;45.55;;;25.67;;
77798;SDS011;66989;50.426;15.352;2023-02-15T11:37:22;45.55;;;23.15;;
77798;SDS011;66989;50.426;15.352;2023-02-15T11:39:54;45.15;;;24.23;;
77798;SDS011;66989;50.426;15.352;2023-02-15T11:42:22;45.47;;;22.45;;
77798;SDS011;66989;50.426;15.352;2023-02-15T11:47:58;41.65;;;23.02;;
77798;SDS011;66989;50.426;15.352;2023-02-15T11:50:28;47.25;;;24.13;;
77798;SDS011;66989;50.426;15.352;2023-02-15T11:53:00;42.45;;;20.45;;
77798;SDS011;66989;50.426;15.352;2023-02-15T11:55:29;43.47;;;22.88;;
77798;SDS011;66989;50.426;15.352;2023-02-15T11:58:08;44.53;;;23.52;;
77798;SDS011;66989;50.426;15.352;2023-02-15T12:00:36;46.78;;;23.73;;
77798;SDS011;66989;50.426;15.352;2023-02-15T12:03:09;45.17;;;23.33;;
77798;SDS011;66989;50.426;15.352;2023-02-15T12:05:45;47.78;;;23.80;;
77798;SDS011;66989;50.426;15.352;2023-02-15T12:08:20;44.22;;;23.02;;
77798;SDS011;66989;50.426;15.352;2023-02-15T12:13:16;42.50;;;23.33;;
77798;SDS011;66989;50.426;15.352;2023-02-15T12:15:44;42.15;;;22.70;;
77798;SDS011;66989;50.426;15.352;2023-02-15T12:18:19;51.72;;;24.25;;
77798;SDS011;66989;50.426;15.352;2023-02-15T12:20:51;41.55;;;22.38;;
77798;SDS011;66989;50.426;15.352;2023-02-15T12:23:17;45.65;;;22.88;;
77798;SDS011;66989;50.426;15.352;2023-02-15T12:25:48;48.58;;;25.27;;
77798;SDS011;66989;50.426;15.352;2023-02-15T12:31:10;42.10;;;22.42;;
77798;SDS011;66989;50.426;15.352;2023-02-15T12:33:46;45.90;;;23.90;;
77798;SDS011;66989;50.426;15.352;2023-02-15T12:36:17;51.35;;;25.33;;
77798;SDS011;66989;50.426;15.352;2023-02-15T12:41:38;44.95;;;22.55;;
77798;SDS011;66989;50.426;15.352;2023-02-15T12:44:17;47.42;;;24.63;;
77798;SDS011;66989;50.426;15.352;2023-02-15T12:49:31;48.80;;;26.02;;
77798;SDS011;66989;50.426;15.352;2023-02-15T12:52:01;50.75;;;27.48;;
77798;SDS011;66989;50.426;15.352;2023-02-15T12:54:36;41.58;;;22.25;;
77798;SDS011;66989;50.426;15.352;2023-02-15T13:02:52;45.55;;;22.30;;
77798;SDS011;66989;50.426;15.352;2023-02-15T13:08:04;47.50;;;23.38;;
77798;SDS011;66989;50.426;15.352;2023-02-15T13:10:38;47.38;;;22.95;;
77798;SDS011;66989;50.426;15.352;2023-02-15T13:13:16;48.00;;;23.73;;
77798;SDS011;66989;50.426;15.352;2023-02-15T13:15:47;54.58;;;26.10;;
77798;SDS011;66989;50.426;15.352;2023-02-15T13:18:16;44.75;;;22.45;;
77798;SDS011;66989;50.426;15.352;2023-02-15T13:20:49;48.47;;;22.55;;
77798;SDS011;66989;50.426;15.352;2023-02-15T13:23:26;45.53;;;21.05;;
77798;SDS011;66989;50.426;15.352;2023-02-15T13:25:54;47.35;;;25.23;;
77798;SDS011;66989;50.426;15.352;2023-02-15T13:28:25;47.10;;;23.67;;
77798;SDS011;66989;50.426;15.352;2023-02-15T13:31:04;57.28;;;26.98;;
77798;SDS011;66989;50.426;15.352;2023-02-15T13:33:37;102.35;;;46.60;;
77798;SDS011;66989;50.426;15.352;2023-02-15T13:36:10;89.65;;;42.13;;
77798;SDS011;66989;50.426;15.352;2023-02-15T13:38:58;44.33;;;21.70;;
77798;SDS011;66989;50.426;15.352;2023-02-15T13:44:14;39.80;;;20.33;;
77798;SDS011;66989;50.426;15.352;2023-02-15T13:55:08;49.10;;;23.85;;
77798;SDS011;66989;50.426;15.352;2023-02-15T13:57:32;52.17;;;26.02;;
77798;SDS011;66989;50.426;15.352;2023-02-15T14:19:43;59.17;;;30.60;;
77798;SDS011;66989;50.426;15.352;2023-02-15T14:22:18;48.88;;;22.95;;
77798;SDS011;66989;50.426;15.352;2023-02-15T14:30:49;45.95;;;25.02;;
77798;SDS011;66989;50.426;15.352;2023-02-15T14:35:59;41.25;;;21.20;;
77798;SDS011;66989;50.426;15.352;2023-02-15T14:38:47;46.53;;;23.10;;
77798;SDS011;66989;50.426;15.352;2023-02-15T14:41:24;44.33;;;22.88;;
77798;SDS011;66989;50.426;15.352;2023-02-15T14:44:08;47.60;;;23.02;;
77798;SDS011;66989;50.426;15.352;2023-02-15T14:49:30;42.88;;;19.83;;
77798;SDS011;66989;50.426;15.352;2023-02-15T14:52:16;45.83;;;23.25;;
77798;SDS011;66989;50.426;15.352;2023-02-15T15:01:58;54.57;;;25.60;;
77798;SDS011;66989;50.426;15.352;2023-02-15T15:09:46;45.88;;;22.00;;
77798;SDS011;66989;50.426;15.352;2023-02-15T15:14:54;54.10;;;25.63;;
77798;SDS011;66989;50.426;15.352;2023-02-15T15:19:58;65.95;;;32.40;;
77798;SDS011;66989;50.426;15.352;2023-02-15T15:22:24;83.45;;;40.22;;
77798;SDS011;66989;50.426;15.352;2023-02-15T15:24:52;78.28;;;34.35;;
77798;SDS011;66989;50.426;15.352;2023-02-15T15:27:45;76.30;;;34.03;;
77798;SDS011;66989;50.426;15.352;2023-02-15T15:47:05;41.33;;;20.38;;
77798;SDS011;66989;50.426;15.352;2023-02-15T15:49:35;53.10;;;25.80;;
77798;SDS011;66989;50.426;15.352;2023-02-15T15:52:07;48.67;;;23.38;;
77798;SDS011;66989;50.426;15.352;2023-02-15T15:54:39;49.67;;;22.88;;
77798;SDS011;66989;50.426;15.352;2023-02-15T15:57:06;51.08;;;26.63;;
77798;SDS011;66989;50.426;15.352;2023-02-15T15:59:43;54.72;;;26.33;;
77798;SDS011;66989;50.426;15.352;2023-02-15T16:02:14;47.88;;;23.33;;
77798;SDS011;66989;50.426;15.352;2023-02-15T16:04:41;53.03;;;26.73;;
77798;SDS011;66989;50.426;15.352;2023-02-15T16:09:39;54.20;;;28.55;;
77798;SDS011;66989;50.426;15.352;2023-02-15T16:12:05;54.72;;;26.63;;
77798;SDS011;66989;50.426;15.352;2023-02-15T16:14:41;54.70;;;26.85;;
77798;SDS011;66989;50.426;15.352;2023-02-15T16:17:19;56.47;;;28.13;;
77798;SDS011;66989;50.426;15.352;2023-02-15T16:19:47;56.35;;;26.55;;
77798;SDS011;66989;50.426;15.352;2023-02-15T16:22:15;91.18;;;43.10;;
77798;SDS011;66989;50.426;15.352;2023-02-15T16:30:27;56.53;;;26.85;;
77798;SDS011;66989;50.426;15.352;2023-02-15T16:33:03;54.08;;;25.70;;
77798;SDS011;66989;50.426;15.352;2023-02-15T16:35:34;78.30;;;36.03;;
77798;SDS011;66989;50.426;15.352;2023-02-15T16:38:03;103.47;;;45.10;;
77798;SDS011;66989;50.426;15.352;2023-02-15T16:42:59;67.53;;;32.83;;
77798;SDS011;66989;50.426;15.352;2023-02-15T16:45:28;63.67;;;28.63;;
77798;SDS011;66989;50.426;15.352;2023-02-15T16:47:57;53.20;;;23.83;;
77798;SDS011;66989;50.426;15.352;2023-02-15T16:50:30;66.60;;;29.85;;
77798;SDS011;66989;50.426;15.352;2023-02-15T16:53:02;66.28;;;30.88;;
77798;SDS011;66989;50.426;15.352;2023-02-15T16:55:37;67.18;;;29.77;;
77798;SDS011;66989;50.426;15.352;2023-02-15T16:58:05;55.88;;;25.05;;
77798;SDS011;66989;50.426;15.352;2023-02-15T17:00:34;65.30;;;28.20;;
77798;SDS011;66989;50.426;15.352;2023-02-15T17:03:04;63.03;;;28.27;;
77798;SDS011;66989;50.426;15.352;2023-02-15T17:05:45;60.63;;;26.55;;
77798;SDS011;66989;50.426;15.352;2023-02-15T17:13:23;64.17;;;28.83;;
77798;SDS011;66989;50.426;15.352;2023-02-15T17:18:24;59.42;;;25.35;;
77798;SDS011;66989;50.426;15.352;2023-02-15T17:23:45;73.85;;;33.25;;
77798;SDS011;66989;50.426;15.352;2023-02-15T17:26:13;74.03;;;32.63;;
77798;SDS011;66989;50.426;15.352;2023-02-15T17:28:48;65.72;;;30.35;;
77798;SDS011;66989;50.426;15.352;2023-02-15T17:31:17;68.05;;;29.65;;
77798;SDS011;66989;50.426;15.352;2023-02-15T17:33:44;48.17;;;21.88;;
77798;SDS011;66989;50.426;15.352;2023-02-15T17:36:11;44.67;;;20.20;;
77798;SDS011;66989;50.426;15.352;2023-02-15T17:38:42;37.40;;;15.80;;
77798;SDS011;66989;50.426;15.352;2023-02-15T17:41:24;58.22;;;24.65;;
77798;SDS011;66989;50.426;15.352;2023-02-15T17:43:50;70.72;;;30.63;;
77798;SDS011;66989;50.426;15.352;2023-02-15T17:46:15;72.47;;;29.83;;
77798;SDS011;66989;50.426;15.352;2023-02-15T17:48:45;70.05;;;33.40;;
77798;SDS011;66989;50.426;15.352;2023-02-15T17:51:13;80.47;;;34.50;;
77798;SDS011;66989;50.426;15.352;2023-02-15T17:53:40;78.95;;;36.25;;
77798;SDS011;66989;50.426;15.352;2023-02-15T17:56:26;65.75;;;28.23;;